Time;durP1;ratioP1;P1;durP2;ratioP2;P2;SDS_P1;SDS_P2;PMS_P1;PMS_P2;Temp;Humidity;BMP_temperature;BMP_pressure;BME280_temperature;BME280_humidity;BME280_pressure;Samples;Min_cycle;Max_cycle;Signal;HPM_P1;HPM_P2
2023/03/23 00:00:05;;;;;;;7.43;4.30;;;10.90;99.90;;;;;;5073338;28;20047;-67
2023/03/23 00:02:37;;;;;;;4.75;3.85;;;11.00;99.90;;;;;;5055247;28;20045;-67
2023/03/23 00:05:04;;;;;;;7.43;4.00;;;10.90;99.90;;;;;;5072848;28;20048;-67
2023/03/23 00:07:30;;;;;;;4.65;3.63;;;11.00;99.90;;;;;;5072914;28;20037;-67
2023/03/23 00:09:56;;;;;;;5.25;3.65;;;11.10;99.90;;;;;;5072965;28;20047;-67
2023/03/23 00:12:33;;;;;;;5.20;3.20;;;11.00;99.90;;;;;;5073153;28;20415;-67
2023/03/23 00:15:01;;;;;;;4.57;3.40;;;11.00;99.90;;;;;;5055058;28;20127;-67
2023/03/23 00:17:28;;;;;;;6.45;4.55;;;11.10;99.90;;;;;;5073078;28;20048;-68
2023/03/23 00:19:54;;;;;;;4.70;3.80;;;11.00;99.90;;;;;;5073060;28;20044;-67
2023/03/23 00:22:20;;;;;;;7.53;3.65;;;11.00;99.90;;;;;;5073090;28;20033;-67
2023/03/23 00:24:50;;;;;;;4.13;3.10;;;11.00;99.90;;;;;;5073004;28;20032;-67
2023/03/23 00:27:16;;;;;;;8.10;3.83;;;11.00;99.90;;;;;;5072996;28;20040;-67
2023/03/23 00:29:41;;;;;;;6.15;4.13;;;11.00;99.90;;;;;;5072752;28;20456;-67
2023/03/23 00:32:13;;;;;;;7.53;3.67;;;11.10;99.90;;;;;;5072845;28;20518;-68
2023/03/23 00:34:42;;;;;;;5.78;4.00;;;11.00;99.90;;;;;;5072475;28;20037;-68
2023/03/23 00:37:09;;;;;;;4.60;3.47;;;11.10;99.90;;;;;;5072798;28;20076;-68
2023/03/23 00:39:38;;;;;;;6.38;3.58;;;11.00;99.90;;;;;;5076538;28;20117;-67
2023/03/23 00:42:04;;;;;;;8.13;3.38;;;11.10;99.90;;;;;;5061532;28;20036;-67
2023/03/23 00:44:33;;;;;;;4.72;3.75;;;11.10;99.90;;;;;;5079491;28;20438;-68
2023/03/23 00:46:59;;;;;;;5.75;3.80;;;11.10;99.90;;;;;;5079266;28;20568;-67
2023/03/23 00:49:25;;;;;;;5.45;4.10;;;11.10;99.90;;;;;;5079461;28;20037;-67
2023/03/23 00:51:57;;;;;;;6.07;3.83;;;11.00;99.90;;;;;;5079508;28;20037;-68
2023/03/23 00:54:24;;;;;;;5.13;3.70;;;11.00;99.90;;;;;;5079360;28;20041;-68
2023/03/23 00:56:50;;;;;;;3.78;2.50;;;11.00;99.90;;;;;;5061162;28;20411;-68
2023/03/23 00:59:16;;;;;;;7.05;3.42;;;11.00;99.90;;;;;;5044266;28;20129;-67
2023/03/23 01:01:42;;;;;;;3.78;3.28;;;11.00;99.90;;;;;;5078895;28;20064;-67
2023/03/23 01:04:11;;;;;;;6.05;3.38;;;11.10;99.90;;;;;;5060928;28;20048;-68
2023/03/23 01:06:40;;;;;;;5.53;2.88;;;12.30;99.90;;;;;;5060874;28;20094;-68
2023/03/23 01:09:07;;;;;;;6.93;3.55;;;11.20;99.90;;;;;;5079177;28;20032;-68
2023/03/23 01:11:33;;;;;;;8.27;3.75;;;11.10;99.90;;;;;;5079083;28;20131;-67
2023/03/23 01:13:59;;;;;;;6.53;3.25;;;11.10;99.90;;;;;;5060948;28;20559;-67
2023/03/23 01:16:25;;;;;;;3.83;2.70;;;11.10;99.90;;;;;;5060934;28;20040;-68
2023/03/23 01:18:51;;;;;;;3.75;2.88;;;11.10;99.90;;;;;;5077650;28;20060;-68
2023/03/23 01:21:19;;;;;;;6.70;3.28;;;11.10;99.90;;;;;;5061022;28;20036;-68
2023/03/23 01:23:45;;;;;;;4.03;2.50;;;11.20;99.90;;;;;;5078827;28;20079;-67
2023/03/23 01:26:12;;;;;;;2.72;1.90;;;11.10;99.90;;;;;;5079210;28;20464;-67
2023/03/23 01:28:38;;;;;;;4.03;2.92;;;11.10;99.90;;;;;;5079055;28;20059;-68
2023/03/23 01:31:07;;;;;;;5.47;2.45;;;11.10;99.90;;;;;;5079153;28;20036;-67
2023/03/23 01:33:33;;;;;;;6.90;2.63;;;11.10;99.90;;;;;;5079015;28;20045;-67
2023/03/23 01:36:04;;;;;;;3.85;2.13;;;11.00;99.90;;;;;;5079080;28;20044;-67
2023/03/23 01:38:30;;;;;;;;;;;11.00;99.90;;;;;;5078918;28;20032;-68
2023/03/23 01:40:56;;;;;;;5.00;2.50;;;11.10;99.90;;;;;;5077350;28;19916;-71
2023/03/23 01:43:22;;;;;;;3.70;2.35;;;11.10;99.90;;;;;;5079001;28;20039;-68
2023/03/23 01:45:47;;;;;;;4.65;2.40;;;11.00;99.90;;;;;;5079000;28;20097;-67
2023/03/23 01:48:27;;;;;;;2.45;1.80;;;11.10;99.90;;;;;;5078644;28;20392;-67
2023/03/23 01:51:12;;;;;;;3.53;2.00;;;11.10;99.90;;;;;;5075722;28;20036;-67
2023/03/23 01:53:44;;;;;;;4.57;2.08;;;11.10;99.90;;;;;;5075667;28;20098;-66
2023/03/23 01:56:12;;;;;;;2.28;1.80;;;11.10;99.90;;;;;;5075723;28;20041;-67
2023/03/23 01:58:39;;;;;;;3.22;1.90;;;11.20;99.90;;;;;;5057360;28;20045;-68
2023/03/23 02:01:11;;;;;;;5.97;2.28;;;11.20;99.90;;;;;;5057402;28;20040;-67
2023/03/23 02:03:39;;;;;;;3.10;1.95;;;11.20;99.90;;;;;;5075211;28;20139;-67
2023/03/23 02:06:05;;;;;;;5.70;1.83;;;11.20;99.90;;;;;;5075148;28;20428;-67
2023/03/23 02:08:32;;;;;;;6.22;2.00;;;11.20;99.90;;;;;;5075385;28;20048;-67
2023/03/23 02:10:59;;;;;;;3.55;2.30;;;11.20;99.90;;;;;;5075402;28;20064;-67
2023/03/23 02:13:25;;;;;;;5.88;2.10;;;11.20;99.90;;;;;;5075305;28;20044;-67
2023/03/23 02:16:09;;;;;;;3.88;1.83;;;11.20;99.90;;;;;;5075301;28;20032;-67
2023/03/23 02:18:43;;;;;;;4.10;1.88;;;11.20;99.90;;;;;;5074849;28;20450;-67
2023/03/23 02:21:26;;;;;;;2.35;1.90;;;11.10;99.90;;;;;;5057316;28;20395;-66
2023/03/23 02:24:10;;;;;;;3.08;1.83;;;11.20;99.90;;;;;;5075111;28;20047;-66
2023/03/23 02:26:53;;;;;;;3.53;1.58;;;11.10;99.90;;;;;;5074823;28;20060;-66
2023/03/23 02:29:46;;;;;;;4.50;1.60;;;11.10;99.90;;;;;;5073605;28;20039;-66
2023/03/23 02:32:20;;;;;;;2.80;1.70;;;11.20;99.90;;;;;;5075003;28;20388;-67
2023/03/23 02:34:54;;;;;;;4.32;1.70;;;11.10;99.90;;;;;;5074922;28;20072;-66
2023/03/23 02:37:36;;;;;;;5.68;2.28;;;11.10;99.90;;;;;;5074934;28;20114;-66
2023/03/23 02:40:09;;;;;;;2.53;1.73;;;11.10;99.90;;;;;;5074860;28;20120;-66
2023/03/23 02:42:39;;;;;;;3.28;1.67;;;11.10;99.90;;;;;;5074846;28;20123;-67
2023/03/23 02:45:08;;;;;;;3.80;1.75;;;11.10;99.90;;;;;;5074821;28;20040;-67
2023/03/23 02:47:37;;;;;;;2.05;1.60;;;11.10;99.90;;;;;;5074595;28;20476;-67
2023/03/23 02:50:06;;;;;;;4.00;1.90;;;11.90;99.90;;;;;;5074389;28;20055;-67
2023/03/23 02:52:34;;;;;;;4.22;1.92;;;11.10;99.90;;;;;;5074534;28;20055;-66
2023/03/23 02:55:01;;;;;;;3.60;1.85;;;11.10;99.90;;;;;;5074565;28;20032;-66
2023/03/23 02:57:28;;;;;;;2.25;1.48;;;11.10;99.90;;;;;;5074557;28;20403;-67
2023/03/23 02:59:54;;;;;;;5.72;1.65;;;11.10;99.90;;;;;;5074515;28;20037;-67
2023/03/23 03:02:27;;;;;;;2.45;1.75;;;11.10;99.90;;;;;;5074107;28;20054;-67
2023/03/23 03:05:16;;;;;;;7.07;1.77;;;12.20;99.90;;;;;;5074006;28;20455;-67
2023/03/23 03:08:10;;;;;;;6.05;1.33;;;11.10;99.90;;;;;;5074073;28;20403;-67
2023/03/23 03:10:38;;;;;;;1.55;1.23;;;11.20;99.90;;;;;;5074259;28;20499;-66
2023/03/23 03:13:18;;;;;;;2.67;1.33;;;11.20;99.90;;;;;;5074154;28;20128;-67
2023/03/23 03:15:53;;;;;;;4.95;1.90;;;11.10;99.90;;;;;;5073820;28;20040;-67
2023/03/23 03:18:31;;;;;;;3.53;1.80;;;11.10;99.90;;;;;;5074129;28;20033;-67
2023/03/23 03:21:02;;;;;;;2.47;1.67;;;11.20;99.90;;;;;;5056071;28;20542;-67
2023/03/23 03:23:29;;;;;;;3.55;1.50;;;11.20;99.90;;;;;;5073925;28;20093;-67
2023/03/23 03:25:57;;;;;;;2.97;1.60;;;11.10;99.90;;;;;;5073955;28;20123;-67
2023/03/23 03:28:24;;;;;;;2.58;1.45;;;11.10;99.90;;;;;;5073857;28;20043;-68
2023/03/23 03:30:54;;;;;;;3.47;1.58;;;11.10;99.90;;;;;;5073846;28;20051;-67
2023/03/23 03:33:25;;;;;;;3.35;1.40;;;11.90;99.90;;;;;;5055729;28;20415;-67
2023/03/23 03:35:51;;;;;;;2.30;1.20;;;11.10;99.90;;;;;;5055537;28;20086;-67
2023/03/23 03:38:17;;;;;;;3.90;1.63;;;11.20;99.90;;;;;;5073712;28;20051;-67
2023/03/23 03:40:43;;;;;;;1.75;1.25;;;11.20;99.90;;;;;;5073651;28;20496;-67
2023/03/23 03:43:08;;;;;;;1.80;1.27;;;11.20;99.90;;;;;;5055806;28;20066;-66
2023/03/23 03:45:34;;;;;;;3.67;1.67;;;11.10;99.90;;;;;;5073352;28;20036;-67
2023/03/23 03:48:01;;;;;;;2.20;1.17;;;11.10;99.90;;;;;;5073329;28;20496;-66
2023/03/23 03:50:27;;;;;;;4.22;1.77;;;11.20;99.90;;;;;;5073458;28;20041;-66
2023/03/23 03:52:53;;;;;;;2.97;1.70;;;11.20;99.90;;;;;;5073442;28;20049;-66
2023/03/23 03:55:19;;;;;;;3.00;1.73;;;11.20;99.90;;;;;;5073156;28;20033;-66
2023/03/23 03:57:44;;;;;;;1.48;0.95;;;11.20;99.90;;;;;;5073431;28;20043;-66
2023/03/23 04:00:14;;;;;;;2.28;1.58;;;11.20;99.90;;;;;;5073068;28;20033;-67
2023/03/23 04:02:50;;;;;;;4.38;1.50;;;11.20;99.90;;;;;;5073319;28;20045;-66
2023/03/23 04:05:16;;;;;;;2.63;1.67;;;11.10;99.90;;;;;;5072938;28;20048;-66
2023/03/23 04:07:42;;;;;;;2.50;1.70;;;11.10;99.90;;;;;;5073225;28;20492;-66
2023/03/23 04:10:10;;;;;;;2.50;1.40;;;11.20;99.90;;;;;;5073223;28;20037;-67
2023/03/23 04:12:36;;;;;;;4.15;1.15;;;11.20;99.90;;;;;;5073127;28;20496;-66
2023/03/23 04:15:03;;;;;;;2.80;1.83;;;11.20;99.90;;;;;;5054250;28;20042;-67
2023/03/23 04:17:29;;;;;;;2.88;1.50;;;11.20;99.90;;;;;;5073117;28;20098;-67
2023/03/23 04:19:59;;;;;;;1.92;1.38;;;11.20;99.90;;;;;;5071657;28;20040;-66
2023/03/23 04:22:29;;;;;;;2.95;1.70;;;11.20;99.90;;;;;;5072880;28;20047;-67
2023/03/23 04:25:00;;;;;;;4.40;2.67;;;11.20;99.90;;;;;;5054840;28;20435;-66
2023/03/23 04:27:27;;;;;;;2.15;1.52;;;12.00;99.90;;;;;;5073069;28;20029;-66
2023/03/23 04:29:58;;;;;;;4.45;1.95;;;11.20;99.90;;;;;;5072985;28;20533;-67
2023/03/23 04:32:28;;;;;;;3.83;2.40;;;11.30;99.90;;;;;;5072957;28;20472;-67
2023/03/23 04:34:57;;;;;;;3.72;2.00;;;11.40;99.90;;;;;;5072984;28;20079;-68
2023/03/23 04:37:28;;;;;;;3.20;1.65;;;11.30;99.90;;;;;;5072986;28;20043;-67
2023/03/23 04:39:59;;;;;;;6.38;1.90;;;11.40;99.90;;;;;;5072947;28;20523;-67
2023/03/23 04:42:27;;;;;;;4.32;2.15;;;11.40;99.90;;;;;;5072865;28;20033;-68
2023/03/23 04:44:54;;;;;;;3.85;2.05;;;11.40;99.90;;;;;;5072854;28;20041;-67
2023/03/23 04:47:19;;;;;;;3.28;1.50;;;11.40;99.90;;;;;;5072828;28;20044;-66
2023/03/23 04:49:45;;;;;;;2.28;2.03;;;11.30;99.90;;;;;;5072815;28;20047;-67
2023/03/23 04:52:11;;;;;;;6.60;2.35;;;11.30;99.90;;;;;;5054548;28;20049;-68
2023/03/23 04:54:37;;;;;;;6.03;2.45;;;11.30;99.90;;;;;;5054456;28;20078;-68
2023/03/23 04:57:03;;;;;;;3.03;2.05;;;11.20;99.90;;;;;;5072467;28;20183;-67
2023/03/23 04:59:30;;;;;;;3.17;2.00;;;11.20;99.90;;;;;;5071179;28;20128;-67
2023/03/23 05:01:57;;;;;;;0.70;0.70;;;11.10;99.90;;;;;;5072692;28;20111;-67
2023/03/23 05:04:24;;;;;;;2.58;0.60;;;10.80;99.90;;;;;;5072296;28;20067;-68
2023/03/23 05:06:53;;;;;;;1.40;0.88;;;11.10;99.90;;;;;;5072392;28;20047;-68
2023/03/23 05:09:19;;;;;;;3.67;1.55;;;9.70;99.90;;;;;;5072623;28;20070;-67
2023/03/23 05:11:45;;;;;;;3.38;1.00;;;10.00;99.90;;;;;;5072480;28;20076;-67
2023/03/23 05:14:10;;;;;;;2.53;1.13;;;10.00;99.90;;;;;;5070898;28;20455;-67
2023/03/23 05:16:37;;;;;;;1.98;0.90;;;9.90;99.90;;;;;;5072536;28;20507;-68
2023/03/23 05:19:04;;;;;;;2.20;1.08;;;10.00;99.90;;;;;;5054574;28;20040;-67
2023/03/23 05:21:30;;;;;;;1.52;0.73;;;10.00;99.90;;;;;;5072425;28;20472;-69
2023/03/23 05:23:56;;;;;;;0.77;0.55;;;9.90;99.90;;;;;;5072429;28;20373;-67
2023/03/23 05:26:24;;;;;;;2.40;0.95;;;9.90;99.90;;;;;;5075489;28;20120;-67
2023/03/23 05:28:52;;;;;;;1.98;0.95;;;9.90;99.90;;;;;;5075900;28;20041;-67
2023/03/23 05:31:18;;;;;;;3.08;0.85;;;9.90;99.90;;;;;;5076108;28;20147;-67
2023/03/23 05:33:45;;;;;;;0.98;0.55;;;9.80;99.90;;;;;;5076060;28;20446;-67
2023/03/23 05:36:13;;;;;;;5.20;0.95;;;10.30;99.90;;;;;;5075982;28;20113;-67
2023/03/23 05:38:41;;;;;;;5.97;0.98;;;9.80;99.90;;;;;;5075916;28;20029;-67
2023/03/23 05:41:07;;;;;;;3.50;1.00;;;10.20;99.90;;;;;;5075701;28;20075;-67
2023/03/23 05:43:34;;;;;;;2.15;0.95;;;9.70;99.90;;;;;;5075843;28;20076;-68
2023/03/23 05:45:59;;;;;;;2.75;0.70;;;9.70;99.90;;;;;;5075897;28;20051;-70
2023/03/23 05:48:26;;;;;;;2.15;0.90;;;9.70;99.90;;;;;;5075623;28;20048;-68
2023/03/23 05:50:51;;;;;;;3.63;1.00;;;9.70;99.90;;;;;;5075801;28;20133;-68
2023/03/23 05:53:17;;;;;;;2.45;1.10;;;9.70;99.90;;;;;;5075608;28;20507;-69
2023/03/23 05:55:43;;;;;;;1.52;0.82;;;9.70;99.90;;;;;;5075707;28;20036;-67
2023/03/23 05:58:08;;;;;;;2.95;0.88;;;9.80;99.90;;;;;;5075678;28;20467;-68
2023/03/23 06:00:34;;;;;;;4.90;1.23;;;9.90;99.90;;;;;;5057736;28;20033;-69
2023/03/23 06:03:00;;;;;;;1.85;0.77;;;9.90;99.90;;;;;;5075381;28;20044;-68
2023/03/23 06:05:26;;;;;;;4.07;1.13;;;9.90;99.90;;;;;;5040477;28;20132;-68
2023/03/23 06:07:53;;;;;;;3.65;1.08;;;10.00;99.90;;;;;;5075309;28;20119;-67
2023/03/23 06:10:19;;;;;;;6.97;1.38;;;10.00;99.90;;;;;;5075419;28;20044;-68
2023/03/23 06:12:45;;;;;;;3.97;1.27;;;10.00;99.90;;;;;;5075109;28;20032;-70
2023/03/23 06:15:11;;;;;;;2.70;1.27;;;10.10;99.90;;;;;;5075143;28;20039;-66
2023/03/23 06:17:37;;;;;;;2.97;0.95;;;10.10;99.90;;;;;;5057143;28;20039;-66
2023/03/23 06:20:09;;;;;;;6.63;1.95;;;10.10;99.90;;;;;;5074964;28;20048;-68
2023/03/23 06:22:39;;;;;;;3.67;1.00;;;10.10;99.90;;;;;;5075219;28;20047;-68
2023/03/23 06:25:11;;;;;;;1.67;0.93;;;10.10;99.90;;;;;;5075157;28;20149;-67
2023/03/23 06:27:36;;;;;;;2.95;1.30;;;10.20;99.90;;;;;;5075165;28;20039;-67
2023/03/23 06:30:04;;;;;;;3.03;1.20;;;10.10;99.90;;;;;;5074841;28;20037;-67
2023/03/23 06:32:31;;;;;;;5.03;1.20;;;10.20;99.90;;;;;;5074671;28;20454;-67
2023/03/23 06:34:57;;;;;;;3.05;1.10;;;10.10;99.90;;;;;;5075007;28;20076;-68
2023/03/23 06:37:24;;;;;;;4.57;1.55;;;10.60;99.90;;;;;;5074022;28;20454;-68
2023/03/23 06:39:50;;;;;;;4.18;0.95;;;10.20;99.90;;;;;;5074907;28;20050;-68
2023/03/23 06:42:16;;;;;;;4.55;1.00;;;10.20;99.90;;;;;;5074895;28;20399;-68
2023/03/23 06:44:42;;;;;;;1.75;0.90;;;10.20;99.90;;;;;;5074741;28;20029;-69
2023/03/23 06:47:07;;;;;;;1.77;0.70;;;10.20;99.90;;;;;;5074752;28;20047;-67
2023/03/23 06:49:33;;;;;;;3.20;0.90;;;10.20;99.90;;;;;;5074688;28;20043;-68
2023/03/23 06:52:01;;;;;;;5.45;1.42;;;10.90;99.90;;;;;;5074628;28;20109;-68
2023/03/23 06:54:27;;;;;;;5.07;1.45;;;10.30;99.90;;;;;;5074550;28;20052;-68
2023/03/23 06:56:53;;;;;;;3.70;1.10;;;10.30;99.90;;;;;;5074243;28;20040;-66
2023/03/23 06:59:19;;;;;;;1.08;0.80;;;10.30;99.90;;;;;;5074496;28;20040;-67
2023/03/23 07:01:46;;;;;;;5.93;1.50;;;10.40;99.90;;;;;;5074090;28;20123;-68
2023/03/23 07:04:12;;;;;;;9.63;1.65;;;10.40;99.90;;;;;;5073974;28;20055;-67
2023/03/23 07:06:37;;;;;;;8.30;1.13;;;10.50;99.90;;;;;;5074317;28;20052;-67
2023/03/23 07:09:03;;;;;;;9.40;1.20;;;10.50;99.90;;;;;;5074145;28;20037;-67
2023/03/23 07:11:29;;;;;;;3.75;1.52;;;10.60;99.90;;;;;;5074225;28;20048;-66
2023/03/23 07:13:55;;;;;;;8.32;1.40;;;10.60;99.90;;;;;;5074059;28;20044;-67
2023/03/23 07:16:21;;;;;;;7.70;1.48;;;10.60;99.90;;;;;;5074185;28;20392;-67
2023/03/23 07:18:46;;;;;;;4.97;1.00;;;10.60;99.90;;;;;;5073954;28;20037;-67
2023/03/23 07:21:12;;;;;;;7.90;1.27;;;10.60;99.90;;;;;;5073784;28;20495;-67
2023/03/23 07:23:37;;;;;;;7.65;2.22;;;10.70;99.90;;;;;;5073703;28;20135;-66
2023/03/23 07:26:03;;;;;;;6.55;1.50;;;11.60;99.90;;;;;;5074044;28;20036;-67
2023/03/23 07:28:30;;;;;;;3.50;1.38;;;10.70;99.90;;;;;;5073917;28;20063;-67
2023/03/23 07:30:55;;;;;;;10.93;2.20;;;10.70;99.90;;;;;;5073946;28;20036;-68
2023/03/23 07:33:21;;;;;;;7.97;1.70;;;10.70;99.90;;;;;;5073635;28;20044;-68
2023/03/23 07:35:47;;;;;;;8.43;2.42;;;10.70;99.90;;;;;;5073754;28;20613;-67
2023/03/23 07:38:13;;;;;;;8.88;1.73;;;10.80;99.90;;;;;;5073467;28;20487;-66
2023/03/23 07:40:39;;;;;;;15.82;1.33;;;10.80;99.90;;;;;;5073585;28;20030;-67
2023/03/23 07:43:05;;;;;;;5.35;1.48;;;11.50;99.90;;;;;;5073625;28;20040;-67
2023/03/23 07:45:31;;;;;;;8.07;1.40;;;10.90;99.90;;;;;;5073561;28;20124;-67
2023/03/23 07:47:57;;;;;;;4.65;1.00;;;11.00;99.90;;;;;;5073066;28;20051;-68
2023/03/23 07:50:24;;;;;;;5.75;1.75;;;11.00;99.90;;;;;;5072970;28;20028;-69
2023/03/23 07:52:53;;;;;;;6.47;1.52;;;12.00;99.90;;;;;;5073355;28;20036;-67
2023/03/23 07:55:19;;;;;;;2.70;1.27;;;11.20;99.90;;;;;;5073116;28;20382;-67
2023/03/23 07:57:46;;;;;;;8.73;1.70;;;11.20;99.90;;;;;;5073357;28;20036;-67
2023/03/23 08:00:23;;;;;;;19.88;1.42;;;11.50;99.90;;;;;;5073322;28;20496;-67
2023/03/23 08:02:52;;;;;;;6.38;1.60;;;11.30;99.90;;;;;;5073288;28;20068;-67
2023/03/23 08:05:18;;;;;;;8.88;1.63;;;11.30;99.90;;;;;;5055132;28;20139;-67
2023/03/23 08:07:44;;;;;;;6.95;1.88;;;11.40;99.90;;;;;;5071612;28;20052;-67
2023/03/23 08:10:12;;;;;;;4.82;1.38;;;11.50;99.90;;;;;;5073130;28;20128;-68
2023/03/23 08:12:39;;;;;;;5.70;1.50;;;11.50;99.90;;;;;;5072784;28;20127;-67
2023/03/23 08:15:06;;;;;;;9.65;1.95;;;11.50;99.90;;;;;;5073171;28;20037;-67
2023/03/23 08:17:32;;;;;;;7.43;1.45;;;11.50;99.90;;;;;;5072944;28;20045;-67
2023/03/23 08:19:58;;;;;;;5.53;1.05;;;12.00;99.90;;;;;;5073170;28;20029;-67
2023/03/23 08:22:24;;;;;;;8.45;1.88;;;11.50;99.90;;;;;;5073155;28;20036;-67
2023/03/23 08:24:50;;;;;;;6.38;1.58;;;11.50;99.90;;;;;;5072986;28;20028;-67
2023/03/23 08:27:15;;;;;;;6.75;1.33;;;11.50;99.90;;;;;;5072765;28;20086;-68
2023/03/23 08:29:44;;;;;;;8.93;1.83;;;11.60;99.90;;;;;;5072932;28;20064;-67
2023/03/23 08:32:10;;;;;;;8.52;2.05;;;11.60;99.90;;;;;;5072896;28;20036;-66
2023/03/23 08:34:36;;;;;;;10.45;1.90;;;11.60;99.90;;;;;;5072854;28;20048;-68
2023/03/23 08:37:02;;;;;;;5.25;1.30;;;11.60;99.90;;;;;;5072854;28;20040;-67
2023/03/23 08:39:29;;;;;;;14.52;1.85;;;11.70;99.90;;;;;;5072672;28;20041;-68
2023/03/23 08:41:55;;;;;;;5.50;2.00;;;11.70;99.90;;;;;;5072894;28;20047;-67
2023/03/23 08:44:21;;;;;;;6.70;1.63;;;11.60;99.90;;;;;;5054649;28;20404;-68
2023/03/23 08:46:47;;;;;;;6.90;1.58;;;11.60;99.90;;;;;;5072833;28;20048;-67
2023/03/23 08:49:12;;;;;;;9.82;1.65;;;11.60;99.90;;;;;;5072886;28;20538;-68
2023/03/23 08:51:38;;;;;;;7.88;1.95;;;11.60;99.90;;;;;;5072768;28;20037;-68
2023/03/23 08:54:04;;;;;;;13.63;1.77;;;11.60;99.90;;;;;;5072425;28;20496;-68
2023/03/23 08:56:29;;;;;;;5.07;1.88;;;11.60;99.90;;;;;;5072446;28;20029;-68
2023/03/23 08:58:55;;;;;;;11.77;1.92;;;11.60;99.90;;;;;;5072722;28;20120;-69
2023/03/23 09:01:20;;;;;;;6.38;1.77;;;11.80;99.90;;;;;;5075959;28;20378;-69
2023/03/23 09:03:46;;;;;;;8.30;2.22;;;11.70;99.90;;;;;;5076760;28;20527;-67
2023/03/23 09:06:12;;;;;;;13.98;2.58;;;11.70;99.90;;;;;;5076380;28;20052;-67
2023/03/23 09:08:39;;;;;;;7.85;2.80;;;11.70;99.90;;;;;;5076646;28;20047;-68
2023/03/23 09:11:08;;;;;;;3.92;1.45;;;11.60;99.90;;;;;;5058541;28;20047;-67
2023/03/23 09:13:34;;;;;;;14.43;1.77;;;11.60;99.90;;;;;;5076445;28;20045;-67
2023/03/23 09:16:00;;;;;;;6.80;1.90;;;11.60;99.90;;;;;;5076329;28;20037;-67
2023/03/23 09:18:26;;;;;;;6.95;2.30;;;11.50;99.90;;;;;;5076047;28;20044;-67
2023/03/23 09:20:53;;;;;;;8.88;1.33;;;11.50;99.90;;;;;;5076456;28;20063;-68
2023/03/23 09:23:20;;;;;;;5.35;2.55;;;12.20;99.90;;;;;;5076337;28;20186;-68
2023/03/23 09:25:46;;;;;;;12.52;2.38;;;11.80;99.90;;;;;;5075995;28;20072;-68
2023/03/23 09:28:12;;;;;;;8.25;1.75;;;11.90;99.90;;;;;;5076213;28;20036;-68
2023/03/23 09:30:40;;;;;;;12.50;1.70;;;12.20;99.90;;;;;;5057901;28;20052;-65
2023/03/23 09:33:07;;;;;;;5.40;1.63;;;12.20;99.90;;;;;;5076130;28;20037;-65
2023/03/23 09:35:35;;;;;;;8.93;2.00;;;12.30;99.90;;;;;;5076080;28;20037;-66
2023/03/23 09:38:01;;;;;;;8.15;2.25;;;12.20;99.90;;;;;;5076013;28;20036;-65
2023/03/23 09:40:48;;;;;;;5.93;1.65;;;12.50;99.90;;;;;;5075764;28;20128;-64
2023/03/23 09:43:27;;;;;;;4.95;1.02;;;12.40;99.90;;;;;;5076011;28;20040;-64
2023/03/23 09:45:59;;;;;;;12.18;2.53;;;12.40;99.90;;;;;;5075913;28;20125;-64
2023/03/23 09:48:46;;;;;;;4.97;1.25;;;12.40;99.90;;;;;;5075881;28;20044;-64
2023/03/23 09:51:42;;;;;;;6.63;1.95;;;12.50;99.90;;;;;;5075840;28;20125;-65
2023/03/23 09:54:15;;;;;;;4.10;1.48;;;12.80;99.90;;;;;;5075409;28;20048;-64
2023/03/23 09:56:41;;;;;;;6.57;1.45;;;13.00;99.90;;;;;;5075713;28;20063;-64
2023/03/23 09:59:14;;;;;;;5.55;1.40;;;13.10;99.90;;;;;;5075448;28;20480;-64
2023/03/23 10:01:45;;;;;;;8.70;1.95;;;13.70;99.90;;;;;;5075620;28;20036;-64
2023/03/23 10:04:15;;;;;;;14.23;2.42;;;13.50;99.90;;;;;;5075399;28;20128;-65
2023/03/23 10:06:40;;;;;;;9.90;1.30;;;13.70;99.20;;;;;;5075739;28;20055;-65
2023/03/23 10:09:11;;;;;;;9.85;1.73;;;13.80;74.20;;;;;;5057305;28;20048;-65
2023/03/23 10:11:45;;;;;;;7.57;1.15;;;13.90;1.00;;;;;;5056003;28;20053;-65
2023/03/23 10:14:11;;;;;;;4.90;1.52;;;13.80;1.00;;;;;;5075318;28;20119;-65
2023/03/23 10:16:51;;;;;;;3.53;1.00;;;13.80;1.00;;;;;;5075365;28;20067;-65
2023/03/23 10:19:31;;;;;;;11.05;1.52;;;13.80;1.00;;;;;;5075052;28;20049;-65
2023/03/23 10:22:10;;;;;;;5.25;1.67;;;13.80;1.00;;;;;;5075325;28;20102;-65
2023/03/23 10:24:52;;;;;;;5.68;1.15;;;13.80;1.00;;;;;;5075217;28;20047;-65
2023/03/23 10:27:33;;;;;;;5.75;1.52;;;13.80;1.00;;;;;;5075220;28;20047;-65
2023/03/23 10:30:10;;;;;;;5.00;1.15;;;13.70;1.00;;;;;;5075222;28;20040;-65
2023/03/23 10:33:02;;;;;;;4.32;1.50;;;13.80;1.00;;;;;;5075068;28;20045;-65
2023/03/23 10:35:54;;;;;;;5.57;1.52;;;13.80;99.90;;;;;;5074829;28;20082;-66
2023/03/23 10:38:25;;;;;;;5.28;0.90;;;13.70;99.90;;;;;;5060468;28;20041;-66
2023/03/23 10:41:00;;;;;;;4.10;1.23;;;13.50;99.90;;;;;;5074918;28;20039;-66
2023/03/23 10:43:26;;;;;;;6.28;0.93;;;13.30;99.90;;;;;;5074922;28;20047;-66
2023/03/23 10:46:01;;;;;;;5.93;0.68;;;13.50;99.90;;;;;;5074867;28;20167;-66
2023/03/23 10:48:33;;;;;;;5.07;1.33;;;13.50;99.90;;;;;;5074773;28;20041;-66
2023/03/23 10:51:02;;;;;;;3.38;1.38;;;13.70;99.90;;;;;;5074697;28;20046;-65
2023/03/23 10:53:37;;;;;;;8.10;1.25;;;13.70;99.90;;;;;;5074642;28;20368;-65
2023/03/23 10:56:04;;;;;;;4.75;1.55;;;13.90;99.90;;;;;;5074711;28;20341;-65
2023/03/23 10:58:33;;;;;;;2.22;0.75;;;14.10;99.90;;;;;;5074218;28;20036;-65
2023/03/23 11:01:01;;;;;;;5.63;1.00;;;14.40;99.90;;;;;;5074533;28;20049;-65
2023/03/23 11:03:41;;;;;;;7.32;1.20;;;14.50;99.90;;;;;;5074508;28;20044;-65
2023/03/23 11:06:28;;;;;;;6.47;0.95;;;14.60;1.00;;;;;;5074053;28;20056;-65
2023/03/23 11:09:34;;;;;;;3.80;1.13;;;14.60;98.70;;;;;;5073419;28;20045;-64
2023/03/23 11:11:59;;;;;;;4.75;1.13;;;14.60;23.20;;;;;;5052521;28;20052;-65
2023/03/23 11:14:34;;;;;;;5.13;1.15;;;14.60;31.30;;;;;;5074257;28;20398;-65
2023/03/23 11:17:02;;;;;;;7.00;0.85;;;14.70;99.90;;;;;;5055980;28;20058;-65
2023/03/23 11:19:31;;;;;;;5.07;1.25;;;15.10;99.90;;;;;;5074225;28;20036;-65
2023/03/23 11:22:05;;;;;;;2.45;0.95;;;14.60;1.00;;;;;;5074172;28;20089;-65
2023/03/23 11:24:43;;;;;;;3.25;0.95;;;14.80;2.20;;;;;;5073836;28;20040;-64
2023/03/23 11:27:10;;;;;;;1.80;0.82;;;15.90;1.00;;;;;;5073668;28;20044;-65
2023/03/23 11:29:43;;;;;;;3.25;0.88;;;15.10;99.90;;;;;;5073983;28;20439;-64
2023/03/23 11:32:12;;;;;;;5.50;1.45;;;15.20;1.00;;;;;;5073874;28;20055;-67
2023/03/23 11:34:45;;;;;;;3.25;1.05;;;15.30;1.00;;;;;;5073491;28;20080;-66
2023/03/23 11:37:15;;;;;;;1.30;0.63;;;15.40;99.90;;;;;;5073835;28;20388;-65
2023/03/23 11:39:59;;;;;;;2.85;0.70;;;15.40;99.90;;;;;;5073739;28;20041;-65
2023/03/23 11:42:34;;;;;;;5.20;0.85;;;13.40;47.00;;;;;;5073483;28;20044;-66
2023/03/23 11:45:30;;;;;;;7.50;1.20;;;15.70;99.90;;;;;;5073608;28;20427;-65
2023/03/23 11:48:11;;;;;;;4.25;1.05;;;15.70;99.90;;;;;;5073584;28;20132;-63
2023/03/23 11:51:05;;;;;;;3.10;0.70;;;15.60;53.00;;;;;;5073494;28;20043;-63
2023/03/23 11:53:43;;;;;;;2.38;0.77;;;15.60;99.90;;;;;;5073088;28;20149;-65
2023/03/23 11:56:26;;;;;;;2.92;1.00;;;15.10;99.90;;;;;;5073463;28;20036;-64
2023/03/23 11:58:54;;;;;;;4.57;0.93;;;15.00;99.90;;;;;;5073375;28;20076;-68
2023/03/23 12:01:32;;;;;;;4.57;1.13;;;14.70;1.00;;;;;;5072993;28;20036;-65
2023/03/23 12:04:35;;;;;;;2.65;1.00;;;14.60;99.90;;;;;;5073078;28;20044;-64
2023/03/23 12:07:18;;;;;;;3.53;0.80;;;14.50;99.90;;;;;;5073225;28;20048;-63
2023/03/23 12:10:08;;;;;;;2.13;1.15;;;14.60;1.00;;;;;;5073203;28;20407;-64
2023/03/23 12:12:44;;;;;;;1.98;0.90;;;14.70;99.90;;;;;;5073112;28;20047;-65
2023/03/23 12:15:31;;;;;;;5.20;1.23;;;14.70;99.90;;;;;;5073170;28;20136;-64
2023/03/23 12:18:22;;;;;;;2.42;0.98;;;14.80;99.90;;;;;;5054927;28;20075;-63
2023/03/23 12:21:05;;;;;;;2.30;0.93;;;14.70;99.90;;;;;;5073130;28;20046;-63
2023/03/23 12:24:08;;;;;;;4.00;0.63;;;15.30;12.30;;;;;;5073082;28;20049;-64
2023/03/23 12:27:01;;;;;;;4.38;1.02;;;15.80;99.90;;;;;;5072718;28;20040;-64
2023/03/23 12:29:55;;;;;;;4.75;1.42;;;16.30;92.50;;;;;;5062803;28;20060;-63
2023/03/23 12:33:05;;;;;;;5.00;1.50;;;16.60;99.90;;;;;;5072937;28;20045;-64
2023/03/23 12:35:54;;;;;;;2.22;0.90;;;16.40;99.90;;;;;;5054473;28;20098;-64
2023/03/23 12:38:42;;;;;;;3.05;1.02;;;15.90;34.80;;;;;;5072979;28;20082;-64
2023/03/23 12:41:42;;;;;;;5.85;0.90;;;15.50;99.90;;;;;;5072611;28;20058;-64
2023/03/23 12:44:13;;;;;;;5.40;1.27;;;15.70;99.90;;;;;;5046636;28;20392;-65
2023/03/23 12:46:42;;;;;;;6.85;1.27;;;15.80;99.90;;;;;;5072523;28;20048;-64
2023/03/23 12:49:24;;;;;;;3.38;1.00;;;15.70;99.90;;;;;;5054575;28;20080;-64
2023/03/23 12:52:00;;;;;;;2.33;0.98;;;15.40;1.00;;;;;;5072842;28;20438;-64
2023/03/23 12:54:33;;;;;;;4.97;1.10;;;15.40;21.70;;;;;;5072763;28;20041;-65
2023/03/23 12:57:17;;;;;;;8.32;1.13;;;16.00;18.50;;;;;;5072560;28;20036;-64
2023/03/23 12:59:58;;;;;;;4.55;1.10;;;16.10;99.90;;;;;;5072750;28;20123;-64
2023/03/23 13:02:41;;;;;;;4.60;0.70;;;16.60;99.90;;;;;;5056259;28;20042;-64
2023/03/23 13:05:14;;;;;;;6.13;0.75;;;17.00;94.70;;;;;;5072306;28;20102;-64